Time;durP1;ratioP1;P1;durP2;ratioP2;P2;SDS_P1;SDS_P2;PMS_P1;PMS_P2;Temp;Humidity;BMP_temperature;BMP_pressure;BME280_temperature;BME280_humidity;BME280_pressure;Samples;Min_cycle;Max_cycle;Signal;HPM_P1;HPM_P2
2022/04/17 00:02:10;;;;;;;2.25;1.20;;;;;;;;;;5074509;28;20389;-48
2022/04/17 00:04:36;;;;;;;2.60;1.20;;;;;;;;;;5073375;28;20023;-56
2022/04/17 00:07:03;;;;;;;1.50;1.02;;;;;;;;;;5074063;28;20027;-50
2022/04/17 00:09:28;;;;;;;1.02;0.90;;;;;;;;;;5072828;28;20470;-52
2022/04/17 00:11:55;;;;;;;2.20;1.45;;;;;;;;;;5073091;28;20043;-48
2022/04/17 00:14:21;;;;;;;1.15;0.90;;;;;;;;;;5072596;28;20374;-48
2022/04/17 00:16:47;;;;;;;1.58;1.00;;;;;;;;;;5072840;28;20028;-49
2022/04/17 00:19:13;;;;;;;1.67;1.20;;;;;;;;;;5073538;28;20017;-48
2022/04/17 00:21:39;;;;;;;1.85;1.27;;;;;;;;;;5072972;28;20034;-51
2022/04/17 00:24:06;;;;;;;1.15;0.80;;;;;;;;;;5073729;28;20046;-47
2022/04/17 00:26:32;;;;;;;1.33;1.05;;;;;;;;;;5073453;28;20029;-47
2022/04/17 00:28:58;;;;;;;1.50;1.23;;;;;;;;;;5072564;28;20025;-48
2022/04/17 00:31:24;;;;;;;1.83;1.35;;;;;;;;;;5073687;28;20082;-47
2022/04/17 00:33:50;;;;;;;1.73;0.90;;;;;;;;;;5073025;28;20029;-47
2022/04/17 00:36:16;;;;;;;1.38;1.08;;;;;;;;;;5073472;28;20020;-50
2022/04/17 00:38:42;;;;;;;1.20;1.05;;;;;;;;;;5072605;28;20025;-47
2022/04/17 00:41:08;;;;;;;1.45;1.02;;;;;;;;;;5073356;28;20103;-47
2022/04/17 00:43:43;;;;;;;2.33;1.08;;;;;;;;;;5072934;28;20029;-47
2022/04/17 00:46:09;;;;;;;2.88;1.38;;;;;;;;;;5114012;28;20024;-47
2022/04/17 00:48:35;;;;;;;1.73;1.40;;;;;;;;;;5113456;28;20064;-54
2022/04/17 00:51:01;;;;;;;1.63;0.90;;;;;;;;;;5113207;28;20493;-47
2022/04/17 00:53:28;;;;;;;1.92;1.17;;;;;;;;;;5113736;28;20043;-46
2022/04/17 00:55:55;;;;;;;1.98;1.23;;;;;;;;;;5112619;28;20048;-50
2022/04/17 00:58:21;;;;;;;1.25;0.80;;;;;;;;;;5113751;28;20080;-50
2022/04/17 01:00:47;;;;;;;1.50;1.00;;;;;;;;;;5112871;28;20104;-50
2022/04/17 01:03:14;;;;;;;1.35;0.90;;;;;;;;;;5113521;28;20024;-48
2022/04/17 01:05:42;;;;;;;1.80;1.10;;;;;;;;;;5112810;28;20026;-55
2022/04/17 01:08:11;;;;;;;1.85;0.90;;;;;;;;;;5113248;28;20202;-48
2022/04/17 01:10:38;;;;;;;1.73;1.10;;;;;;;;;;5094875;28;20110;-54
2022/04/17 01:13:05;;;;;;;1.23;0.90;;;;;;;;;;5112821;28;20041;-47
2022/04/17 01:15:31;;;;;;;1.50;1.23;;;;;;;;;;5113095;28;20019;-47
2022/04/17 01:17:57;;;;;;;1.25;0.90;;;;;;;;;;5112577;28;20377;-47
2022/04/17 01:20:23;;;;;;;1.98;1.25;;;;;;;;;;5113283;28;20020;-47
2022/04/17 01:22:49;;;;;;;2.03;1.25;;;;;;;;;;5112238;28;20469;-46
2022/04/17 01:28:03;;;;;;;1.40;1.10;;;;;;;;;;5097145;28;20076;-50
2022/04/17 01:30:29;;;;;;;1.50;1.02;;;;;;;;;;5112830;28;20094;-49
2022/04/17 01:32:55;;;;;;;1.88;1.00;;;;;;;;;;5112308;28;20030;-50
2022/04/17 01:35:22;;;;;;;1.58;0.98;;;;;;;;;;5112750;28;20468;-49
2022/04/17 01:37:48;;;;;;;1.67;1.20;;;;;;;;;;5112186;28;20035;-48
2022/04/17 01:40:14;;;;;;;1.88;0.90;;;;;;;;;;5112333;28;20103;-48
2022/04/17 01:42:40;;;;;;;2.35;1.15;;;;;;;;;;5112795;28;20020;-54
2022/04/17 01:45:06;;;;;;;1.27;1.00;;;;;;;;;;5112605;28;20055;-51
2022/04/17 01:47:32;;;;;;;1.65;1.20;;;;;;;;;;5112868;28;20047;-51
2022/04/17 01:49:59;;;;;;;3.08;1.60;;;;;;;;;;5112030;28;20090;-47
2022/04/17 01:52:26;;;;;;;1.40;1.30;;;;;;;;;;5112679;28;20042;-50
2022/04/17 01:54:52;;;;;;;2.00;1.05;;;;;;;;;;5111839;28;20471;-48
2022/04/17 01:57:18;;;;;;;2.17;1.00;;;;;;;;;;5112741;28;20098;-52
2022/04/17 01:59:44;;;;;;;1.20;0.90;;;;;;;;;;5077081;28;20036;-51
2022/04/17 02:02:10;;;;;;;1.77;1.10;;;;;;;;;;5112695;28;20028;-51
2022/04/17 02:04:36;;;;;;;1.67;1.00;;;;;;;;;;5112938;28;20027;-49
2022/04/17 02:07:05;;;;;;;1.60;1.20;;;;;;;;;;5111520;28;20598;-47
2022/04/17 02:09:31;;;;;;;1.50;1.10;;;;;;;;;;5112551;28;20039;-54
2022/04/17 02:11:58;;;;;;;1.42;0.90;;;;;;;;;;5111759;28;20365;-48
2022/04/17 02:14:24;;;;;;;2.13;1.10;;;;;;;;;;5112529;28;20050;-49
2022/04/17 02:16:50;;;;;;;1.60;1.02;;;;;;;;;;5111769;28;20019;-49
2022/04/17 02:19:17;;;;;;;1.30;1.00;;;;;;;;;;5094222;28;20073;-47
2022/04/17 02:21:43;;;;;;;1.60;1.10;;;;;;;;;;5111907;28;20099;-55
2022/04/17 02:24:09;;;;;;;4.05;0.93;;;;;;;;;;5112460;28;20099;-48
2022/04/17 02:26:35;;;;;;;0.82;0.60;;;;;;;;;;5094381;28;20495;-49
2022/04/17 02:29:02;;;;;;;1.75;1.13;;;;;;;;;;5111305;28;20043;-51
2022/04/17 02:31:29;;;;;;;1.40;0.95;;;;;;;;;;5112034;28;20045;-48
2022/04/17 02:33:56;;;;;;;1.48;0.85;;;;;;;;;;5111458;28;20117;-50
2022/04/17 02:36:22;;;;;;;1.80;0.98;;;;;;;;;;5112330;28;20342;-48
2022/04/17 02:38:48;;;;;;;2.83;1.33;;;;;;;;;;5093307;28;20488;-49
2022/04/17 02:41:14;;;;;;;1.50;1.20;;;;;;;;;;5112068;28;20393;-50
2022/04/17 02:43:40;;;;;;;2.30;1.23;;;;;;;;;;5112090;28;20030;-48
2022/04/17 02:46:06;;;;;;;1.77;1.20;;;;;;;;;;5111505;28;20027;-49
2022/04/17 02:48:34;;;;;;;1.67;1.08;;;;;;;;;;5112253;28;20053;-50
2022/04/17 02:51:00;;;;;;;3.30;1.42;;;;;;;;;;5113007;28;20524;-48
2022/04/17 02:53:26;;;;;;;1.20;0.95;;;;;;;;;;5116043;28;20099;-50
2022/04/17 02:55:52;;;;;;;2.15;1.23;;;;;;;;;;5115401;28;20032;-48
2022/04/17 02:58:19;;;;;;;2.35;1.08;;;;;;;;;;5116053;28;20401;-50
2022/04/17 03:06:15;;;;;;;3.20;1.10;;;;;;;;;;5115763;28;20056;-48
2022/04/17 03:08:41;;;;;;;3.25;1.25;;;;;;;;;;5115892;28;20035;-52
2022/04/17 03:11:08;;;;;;;2.00;1.10;;;;;;;;;;5114911;28;20112;-51
2022/04/17 03:13:34;;;;;;;1.30;1.00;;;;;;;;;;5115807;28;20040;-47
2022/04/17 03:16:00;;;;;;;3.00;1.60;;;;;;;;;;5096594;28;20457;-49
2022/04/17 03:18:26;;;;;;;1.67;1.10;;;;;;;;;;5115596;28;20042;-50
2022/04/17 03:20:52;;;;;;;2.10;1.30;;;;;;;;;;5114507;28;20023;-47
2022/04/17 03:23:19;;;;;;;1.42;1.10;;;;;;;;;;5115929;28;20030;-51
2022/04/17 03:25:46;;;;;;;1.17;0.75;;;;;;;;;;5115194;28;20061;-54
2022/04/17 03:28:12;;;;;;;1.77;1.30;;;;;;;;;;5114858;28;20028;-51
2022/04/17 03:30:38;;;;;;;1.45;1.00;;;;;;;;;;5115134;28;20460;-48
2022/04/17 03:33:04;;;;;;;1.77;1.02;;;;;;;;;;5096357;28;20028;-47
2022/04/17 03:35:31;;;;;;;1.92;1.20;;;;;;;;;;5115606;28;20031;-47
2022/04/17 03:37:57;;;;;;;1.38;1.17;;;;;;;;;;5114223;28;20020;-46
2022/04/17 03:40:23;;;;;;;2.38;1.25;;;;;;;;;;5115407;28;20016;-50
2022/04/17 03:42:49;;;;;;;1.10;1.00;;;;;;;;;;5114807;28;20484;-53
2022/04/17 03:45:17;;;;;;;1.77;0.90;;;;;;;;;;5078590;28;20044;-47
2022/04/17 03:47:43;;;;;;;1.45;1.15;;;;;;;;;;5074499;28;20477;-47
2022/04/17 03:50:09;;;;;;;1.23;1.10;;;;;;;;;;5072358;28;20036;-47
2022/04/17 03:52:39;;;;;;;2.15;1.08;;;;;;;;;;5074005;28;20473;-50
2022/04/17 03:55:05;;;;;;;2.03;1.00;;;;;;;;;;5073683;28;20044;-47
2022/04/17 03:57:32;;;;;;;1.40;1.20;;;;;;;;;;5074551;28;20552;-48
2022/04/17 03:59:58;;;;;;;1.35;1.05;;;;;;;;;;5073412;28;20025;-47
2022/04/17 04:02:25;;;;;;;1.25;1.00;;;;;;;;;;5073248;28;20021;-49
2022/04/17 04:04:51;;;;;;;2.33;1.20;;;;;;;;;;5073453;28;20059;-54
2022/04/17 04:07:17;;;;;;;1.83;1.00;;;;;;;;;;5073790;28;20473;-49
2022/04/17 04:09:43;;;;;;;3.25;1.25;;;;;;;;;;5074036;28;20079;-49
2022/04/17 04:12:09;;;;;;;1.98;1.52;;;;;;;;;;5073105;28;20128;-50
2022/04/17 04:14:35;;;;;;;1.55;1.30;;;;;;;;;;5073742;28;20063;-52
2022/04/17 04:17:01;;;;;;;1.77;1.17;;;;;;;;;;5073043;28;20452;-48
2022/04/17 04:19:27;;;;;;;1.40;1.00;;;;;;;;;;5073833;28;20031;-49
2022/04/17 04:21:53;;;;;;;2.15;1.30;;;;;;;;;;5072706;28;20473;-50
2022/04/17 04:24:19;;;;;;;2.47;1.20;;;;;;;;;;5073644;28;20032;-50
2022/04/17 04:28:32;;;;;;;2.50;1.15;;;;;;;;;;5073758;28;20063;-47
2022/04/17 04:29:32;;;;;;;1.88;1.00;;;;;;;;;;5073264;28;20138;-49
2022/04/17 04:31:58;;;;;;;1.92;1.30;;;;;;;;;;5072687;28;20024;-47
2022/04/17 04:34:24;;;;;;;2.58;1.55;;;;;;;;;;5073243;28;20029;-49
2022/04/17 04:36:50;;;;;;;1.52;0.93;;;;;;;;;;5073463;28;20462;-54
2022/04/17 04:39:16;;;;;;;1.98;1.27;;;;;;;;;;5073030;28;20155;-48
2022/04/17 04:41:42;;;;;;;2.20;1.20;;;;;;;;;;5073369;28;20474;-47
2022/04/17 04:44:08;;;;;;;1.30;1.10;;;;;;;;;;5083144;28;20043;-48
2022/04/17 04:46:34;;;;;;;2.03;1.45;;;;;;;;;;5095678;28;20354;-48
2022/04/17 04:51:45;;;;;;;2.00;1.35;;;;;;;;;;5113626;28;20438;-47
2022/04/17 04:54:11;;;;;;;1.65;1.20;;;;;;;;;;5112724;28;20039;-49
2022/04/17 04:56:37;;;;;;;1.38;1.10;;;;;;;;;;5113953;28;20051;-47
2022/04/17 04:59:04;;;;;;;1.92;1.02;;;;;;;;;;5112652;28;20023;-50
2022/04/17 05:01:30;;;;;;;2.47;1.40;;;;;;;;;;5113652;28;20023;-48
2022/04/17 05:03:56;;;;;;;1.85;1.30;;;;;;;;;;5112858;28;20030;-49
2022/04/17 05:06:22;;;;;;;1.90;1.35;;;;;;;;;;5113535;28;20119;-48
2022/04/17 05:08:48;;;;;;;1.27;0.90;;;;;;;;;;5113470;28;20051;-50
2022/04/17 05:11:14;;;;;;;1.77;1.25;;;;;;;;;;5112612;28;20160;-52
2022/04/17 05:13:40;;;;;;;1.75;1.15;;;;;;;;;;5112547;28;20052;-47
2022/04/17 05:16:06;;;;;;;2.85;1.20;;;;;;;;;;5112281;28;20024;-51
2022/04/17 05:18:32;;;;;;;2.33;1.13;;;;;;;;;;5113327;28;20073;-48
2022/04/17 05:20:58;;;;;;;2.45;1.10;;;;;;;;;;5112542;28;20027;-47
2022/04/17 05:23:31;;;;;;;2.13;1.35;;;;;;;;;;5113287;28;20019;-49
2022/04/17 05:25:58;;;;;;;2.83;1.30;;;;;;;;;;5112684;28;20029;-48
2022/04/17 05:28:24;;;;;;;2.55;1.40;;;;;;;;;;5113112;28;20030;-49
2022/04/17 05:30:50;;;;;;;1.20;1.10;;;;;;;;;;5113198;28;20080;-49
2022/04/17 05:33:20;;;;;;;2.30;1.40;;;;;;;;;;5112270;28;20114;-49
2022/04/17 05:35:46;;;;;;;2.35;1.40;;;;;;;;;;5113085;28;20031;-50
2022/04/17 05:38:12;;;;;;;2.28;1.20;;;;;;;;;;5112216;28;20481;-48
2022/04/17 05:40:41;;;;;;;2.70;1.30;;;;;;;;;;5112882;28;20047;-48
2022/04/17 05:43:07;;;;;;;1.98;1.08;;;;;;;;;;5111919;28;20456;-51
2022/04/17 05:45:33;;;;;;;1.65;1.40;;;;;;;;;;5112551;28;20044;-48
2022/04/17 05:47:59;;;;;;;1.50;1.00;;;;;;;;;;5112088;28;20059;-48
2022/04/17 05:50:25;;;;;;;1.20;0.90;;;;;;;;;;5112882;28;20077;-53
2022/04/17 05:52:51;;;;;;;1.60;1.38;;;;;;;;;;5112865;28;20067;-50
2022/04/17 05:55:17;;;;;;;1.40;1.08;;;;;;;;;;5111682;28;20431;-47
2022/04/17 05:57:43;;;;;;;1.85;1.30;;;;;;;;;;5112490;28;20036;-52
2022/04/17 06:00:11;;;;;;;2.30;1.50;;;;;;;;;;5111838;28;20034;-52
2022/04/17 06:02:38;;;;;;;1.55;1.25;;;;;;;;;;5112850;28;20019;-52
2022/04/17 06:05:04;;;;;;;1.83;1.05;;;;;;;;;;5111784;28;20019;-49
2022/04/17 06:07:30;;;;;;;2.20;1.30;;;;;;;;;;5094458;28;20110;-50
2022/04/17 06:09:56;;;;;;;1.92;1.00;;;;;;;;;;5112232;28;20024;-55
2022/04/17 06:12:22;;;;;;;1.90;1.20;;;;;;;;;;5112272;28;20054;-52
2022/04/17 06:14:48;;;;;;;1.73;1.20;;;;;;;;;;5112546;28;20103;-51
2022/04/17 06:17:14;;;;;;;2.13;1.08;;;;;;;;;;5111550;28;20106;-48
2022/04/17 06:19:40;;;;;;;2.15;1.20;;;;;;;;;;5112527;28;20034;-49
2022/04/17 06:22:10;;;;;;;1.65;1.00;;;;;;;;;;5111626;28;20019;-51
2022/04/17 06:24:36;;;;;;;1.67;1.13;;;;;;;;;;5094272;28;20024;-50
2022/04/17 06:27:02;;;;;;;1.20;0.90;;;;;;;;;;5114982;28;20036;-51
2022/04/17 06:29:28;;;;;;;1.20;1.00;;;;;;;;;;5116384;28;20020;-51
2022/04/17 06:31:54;;;;;;;2.28;1.30;;;;;;;;;;5116538;28;20056;-49
2022/04/17 06:34:20;;;;;;;1.58;1.02;;;;;;;;;;5115745;28;20141;-48
2022/04/17 06:36:46;;;;;;;1.95;1.00;;;;;;;;;;5116427;28;20016;-48
2022/04/17 06:39:12;;;;;;;1.77;1.15;;;;;;;;;;5115434;28;20024;-52
2022/04/17 06:41:38;;;;;;;1.25;0.90;;;;;;;;;;5116335;28;20032;-52
2022/04/17 06:44:04;;;;;;;1.77;1.00;;;;;;;;;;5088802;28;20036;-48
2022/04/17 06:46:31;;;;;;;1.65;1.25;;;;;;;;;;5075917;28;20029;-51
2022/04/17 06:48:57;;;;;;;1.35;1.08;;;;;;;;;;5075093;28;20045;-54
2022/04/17 06:51:25;;;;;;;1.25;0.80;;;;;;;;;;5074987;28;20442;-53
2022/04/17 06:53:52;;;;;;;1.27;1.10;;;;;;;;;;5073924;28;20032;-49
2022/04/17 06:56:18;;;;;;;1.40;1.27;;;;;;;;;;5074282;28;20024;-51
2022/04/17 06:58:48;;;;;;;1.77;1.20;;;;;;;;;;5074073;28;20071;-49
2022/04/17 07:01:15;;;;;;;0.75;0.73;;;;;;;;;;5074806;28;20104;-50
2022/04/17 07:03:44;;;;;;;1.10;1.00;;;;;;;;;;5075620;28;20098;-48
2022/04/17 07:06:10;;;;;;;1.35;1.00;;;;;;;;;;5074322;28;20027;-48
2022/04/17 07:08:36;;;;;;;1.20;1.10;;;;;;;;;;5075014;28;20029;-50
2022/04/17 07:11:02;;;;;;;1.52;1.00;;;;;;;;;;5073927;28;20028;-57
2022/04/17 07:13:28;;;;;;;1.98;1.00;;;;;;;;;;5074776;28;20481;-49
2022/04/17 07:15:54;;;;;;;1.50;0.98;;;;;;;;;;5074886;28;20029;-49
2022/04/17 07:18:20;;;;;;;2.45;1.20;;;;;;;;;;5074036;28;20031;-48
2022/04/17 07:20:46;;;;;;;2.40;1.20;;;;;;;;;;5074788;28;20024;-52
2022/04/17 07:23:12;;;;;;;1.10;0.90;;;;;;;;;;5074187;28;20091;-49
2022/04/17 07:25:38;;;;;;;2.05;0.90;;;;;;;;;;5074984;28;20024;-48
2022/04/17 07:28:05;;;;;;;1.48;0.73;;;;;;;;;;5073993;28;20130;-51
2022/04/17 07:30:33;;;;;;;1.58;0.90;;;;;;;;;;5074423;28;20047;-48
2022/04/17 07:32:59;;;;;;;1.52;1.10;;;;;;;;;;5074771;28;20025;-50
2022/04/17 07:35:27;;;;;;;1.95;0.90;;;;;;;;;;5074189;28;20462;-48
2022/04/17 07:37:54;;;;;;;1.40;0.90;;;;;;;;;;5073543;28;20059;-51
2022/04/17 07:40:23;;;;;;;1.75;1.60;;;;;;;;;;5073805;28;20028;-49
2022/04/17 07:42:50;;;;;;;0.82;0.70;;;;;;;;;;5074318;28;20116;-49
2022/04/17 07:45:17;;;;;;;1.05;0.80;;;;;;;;;;5103115;28;20485;-48
2022/04/17 07:47:43;;;;;;;1.20;0.75;;;;;;;;;;5115162;28;20016;-48
2022/04/17 07:50:10;;;;;;;1.67;0.98;;;;;;;;;;5114283;28;20031;-49
2022/04/17 07:52:36;;;;;;;1.40;0.93;;;;;;;;;;5114971;28;20026;-48
2022/04/17 07:55:04;;;;;;;1.17;0.95;;;;;;;;;;5114881;28;20357;-55
2022/04/17 07:57:55;;;;;;;1.42;0.80;;;;;;;;;;5114671;28;20038;-48
2022/04/17 08:00:21;;;;;;;1.10;0.75;;;;;;;;;;5113663;28;20039;-49
2022/04/17 08:02:55;;;;;;;1.38;1.00;;;;;;;;;;5114852;28;20417;-48
2022/04/17 08:05:24;;;;;;;1.80;0.90;;;;;;;;;;5113815;28;20611;-48
2022/04/17 08:07:50;;;;;;;1.35;0.70;;;;;;;;;;5114696;28;20027;-48
2022/04/17 08:10:17;;;;;;;0.90;0.80;;;;;;;;;;5113921;28;20035;-48
2022/04/17 08:12:43;;;;;;;1.48;0.90;;;;;;;;;;5114506;28;20056;-49
2022/04/17 08:15:09;;;;;;;1.48;0.80;;;;;;;;;;5095547;28;20028;-49
2022/04/17 08:17:35;;;;;;;1.05;0.80;;;;;;;;;;5114556;28;20095;-49
2022/04/17 08:20:01;;;;;;;1.75;0.85;;;;;;;;;;5114417;28;20035;-49
2022/04/17 08:22:27;;;;;;;4.82;1.35;;;;;;;;;;5113480;28;20032;-52
2022/04/17 08:24:53;;;;;;;2.28;1.27;;;;;;;;;;5114118;28;20024;-52
2022/04/17 08:27:19;;;;;;;1.63;0.80;;;;;;;;;;5113416;28;20480;-51
2022/04/17 08:29:45;;;;;;;1.48;0.70;;;;;;;;;;5114427;28;20076;-49
2022/04/17 08:32:11;;;;;;;2.10;0.73;;;;;;;;;;5113248;28;20423;-51
2022/04/17 08:34:37;;;;;;;1.05;0.80;;;;;;;;;;5113999;28;20081;-51
2022/04/17 08:37:03;;;;;;;0.93;0.82;;;;;;;;;;5114117;28;20024;-55
2022/04/17 08:39:29;;;;;;;1.05;0.80;;;;;;;;;;5113596;28;20145;-48
2022/04/17 08:41:58;;;;;;;1.85;0.80;;;;;;;;;;5114084;28;20023;-51
2022/04/17 08:44:24;;;;;;;0.95;0.73;;;;;;;;;;5113229;28;20071;-48
2022/04/17 08:46:50;;;;;;;1.27;0.93;;;;;;;;;;5113675;28;20066;-48
2022/04/17 08:49:19;;;;;;;0.80;0.75;;;;;;;;;;5112661;28;20044;-49
2022/04/17 08:51:48;;;;;;;1.52;0.95;;;;;;;;;;5113453;28;20484;-48
2022/04/17 08:54:15;;;;;;;1.50;0.68;;;;;;;;;;5095335;28;20097;-48
2022/04/17 08:56:41;;;;;;;1.60;1.00;;;;;;;;;;5113484;28;20036;-50
2022/04/17 08:59:07;;;;;;;2.28;0.95;;;;;;;;;;5112899;28;20031;-55
2022/04/17 09:01:37;;;;;;;1.02;0.90;;;;;;;;;;5113844;28;20038;-49
2022/04/17 09:04:03;;;;;;;1.95;0.80;;;;;;;;;;5113630;28;20073;-48
2022/04/17 09:06:29;;;;;;;0.95;0.77;;;;;;;;;;5112799;28;20028;-48
2022/04/17 09:09:06;;;;;;;0.85;0.75;;;;;;;;;;5113802;28;20016;-50
2022/04/17 09:11:33;;;;;;;1.35;0.90;;;;;;;;;;5094424;28;20062;-48
2022/04/17 09:14:00;;;;;;;2.20;0.80;;;;;;;;;;5113524;28;20028;-48
2022/04/17 09:16:27;;;;;;;1.23;0.75;;;;;;;;;;5112528;28;20073;-48
2022/04/17 09:18:53;;;;;;;1.83;1.05;;;;;;;;;;5113457;28;20023;-49
2022/04/17 09:21:34;;;;;;;1.33;0.80;;;;;;;;;;5112551;28;20453;-48
2022/04/17 09:24:13;;;;;;;0.80;0.73;;;;;;;;;;5113177;28;20027;-48
2022/04/17 09:26:47;;;;;;;1.55;0.93;;;;;;;;;;5078318;28;20473;-48
2022/04/17 09:29:21;;;;;;;1.67;0.80;;;;;;;;;;5112468;28;20059;-48
2022/04/17 09:31:47;;;;;;;1.27;0.98;;;;;;;;;;5112814;28;20028;-49
2022/04/17 09:34:14;;;;;;;1.00;0.70;;;;;;;;;;5112294;28;20031;-48
2022/04/17 09:36:40;;;;;;;1.42;0.80;;;;;;;;;;5113183;28;20012;-47
2022/04/17 09:39:14;;;;;;;1.55;0.90;;;;;;;;;;5113348;28;20043;-48
2022/04/17 09:41:55;;;;;;;1.20;0.80;;;;;;;;;;5113097;28;20364;-48
2022/04/17 09:44:34;;;;;;;1.50;1.00;;;;;;;;;;5111633;28;20549;-49
2022/04/17 09:47:00;;;;;;;1.58;0.90;;;;;;;;;;5113028;28;20455;-50
2022/04/17 09:49:26;;;;;;;1.10;0.70;;;;;;;;;;5111841;28;20469;-48
2022/04/17 09:52:08;;;;;;;0.70;0.55;;;;;;;;;;5112592;28;20042;-49
2022/04/17 09:54:34;;;;;;;1.02;0.88;;;;;;;;;;5112290;28;20023;-49
2022/04/17 09:57:00;;;;;;;0.80;0.60;;;;;;;;;;5112697;28;20135;-52
2022/04/17 09:59:27;;;;;;;1.17;0.70;;;;;;;;;;5111716;28;20051;-48
2022/04/17 10:01:57;;;;;;;0.95;0.70;;;;;;;;;;5112477;28;20034;-48
2022/04/17 10:04:24;;;;;;;2.22;0.88;;;;;;;;;;5111939;28;20020;-50
2022/04/17 10:06:54;;;;;;;0.77;0.52;;;;;;;;;;5112623;28;20031;-50
2022/04/17 10:09:20;;;;;;;0.95;0.73;;;;;;;;;;5111860;28;20430;-52
2022/04/17 10:11:47;;;;;;;1.33;0.90;;;;;;;;;;5112388;28;20028;-50
2022/04/17 10:14:14;;;;;;;2.08;0.90;;;;;;;;;;5111832;28;20026;-55
2022/04/17 10:16:41;;;;;;;0.90;0.70;;;;;;;;;;5112578;28;20038;-53
2022/04/17 10:19:11;;;;;;;1.00;0.63;;;;;;;;;;5112546;28;20020;-49
2022/04/17 10:21:39;;;;;;;1.10;0.80;;;;;;;;;;5112347;28;20039;-51
2022/04/17 10:24:06;;;;;;;3.05;0.73;;;;;;;;;;5112125;28;20054;-51
2022/04/17 10:26:34;;;;;;;1.00;0.70;;;;;;;;;;5111638;28;20194;-53
2022/04/17 10:29:02;;;;;;;1.30;0.73;;;;;;;;;;5112442;28;20028;-51
2022/04/17 10:31:38;;;;;;;0.70;0.70;;;;;;;;;;5111596;28;20472;-54
2022/04/17 10:34:27;;;;;;;1.80;0.80;;;;;;;;;;5112544;28;20028;-50
2022/04/17 10:36:56;;;;;;;0.98;0.60;;;;;;;;;;5101672;28;20085;-49
2022/04/17 10:39:30;;;;;;;1.33;0.70;;;;;;;;;;5111461;28;20024;-51
2022/04/17 10:41:58;;;;;;;1.10;0.57;;;;;;;;;;5112255;28;20020;-49
2022/04/17 10:44:28;;;;;;;2.03;0.75;;;;;;;;;;5111198;28;20491;-52
2022/04/17 10:46:54;;;;;;;1.38;0.90;;;;;;;;;;5112249;28;20023;-52
2022/04/17 10:49:22;;;;;;;2.05;0.70;;;;;;;;;;5111216;28;20034;-48
2022/04/17 10:51:52;;;;;;;0.88;0.57;;;;;;;;;;5112164;28;20050;-48
2022/04/17 10:54:18;;;;;;;1.35;0.90;;;;;;;;;;5093168;28;20431;-49
2022/04/17 10:56:56;;;;;;;1.30;0.93;;;;;;;;;;5111929;28;20031;-48
2022/04/17 10:59:22;;;;;;;0.70;0.55;;;;;;;;;;5111256;28;20069;-51
2022/04/17 11:01:56;;;;;;;0.93;0.70;;;;;;;;;;5112104;28;20377;-50
2022/04/17 11:04:26;;;;;;;1.08;0.82;;;;;;;;;;5093108;28;20124;-49
2022/04/17 11:07:12;;;;;;;0.93;0.60;;;;;;;;;;5111930;28;20024;-50
2022/04/17 11:09:46;;;;;;;0.52;0.52;;;;;;;;;;5110817;28;20088;-48
2022/04/17 11:12:18;;;;;;;0.90;0.70;;;;;;;;;;5113711;28;20022;-48
2022/04/17 11:14:59;;;;;;;1.88;0.80;;;;;;;;;;5115322;28;20038;-48
2022/04/17 11:17:25;;;;;;;1.70;0.90;;;;;;;;;;5114750;28;20028;-50
2022/04/17 11:19:58;;;;;;;1.02;0.60;;;;;;;;;;5115455;28;20499;-49
2022/04/17 11:22:28;;;;;;;1.08;0.80;;;;;;;;;;5114699;28;20380;-48
2022/04/17 11:24:57;;;;;;;1.00;0.70;;;;;;;;;;5097238;28;20077;-48
2022/04/17 11:27:32;;;;;;;0.90;0.70;;;;;;;;;;5114723;28;20474;-48
2022/04/17 11:30:01;;;;;;;1.10;0.93;;;;;;;;;;5115391;28;20016;-48
2022/04/17 11:32:30;;;;;;;1.70;0.75;;;;;;;;;;5114587;28;20034;-49
2022/04/17 11:34:57;;;;;;;1.15;0.75;;;;;;;;;;5115491;28;20028;-49
2022/04/17 11:37:27;;;;;;;1.05;0.88;;;;;;;;;;5114573;28;20051;-49
2022/04/17 11:39:54;;;;;;;0.93;0.63;;;;;;;;;;5115211;28;20024;-48
2022/04/17 11:42:20;;;;;;;1.13;0.63;;;;;;;;;;5114510;28;20035;-51
2022/04/17 11:44:47;;;;;;;1.88;0.70;;;;;;;;;;5115070;28;20100;-49
2022/04/17 11:47:14;;;;;;;1.10;0.80;;;;;;;;;;5115160;28;20028;-49
2022/04/17 11:49:40;;;;;;;2.45;0.77;;;;;;;;;;5114456;28;20028;-51
2022/04/17 11:52:13;;;;;;;1.15;0.80;;;;;;;;;;5115019;28;20023;-48
2022/04/17 11:54:40;;;;;;;1.45;0.70;;;;;;;;;;5114039;28;20038;-48
2022/04/17 11:57:06;;;;;;;1.75;0.93;;;;;;;;;;5114938;28;20028;-50
2022/04/17 11:59:45;;;;;;;1.83;1.00;;;;;;;;;;5114112;28;20034;-48
2022/04/17 12:02:14;;;;;;;1.05;0.95;;;;;;;;;;5114827;28;20031;-49
2022/04/17 12:04:41;;;;;;;1.13;0.77;;;;;;;;;;5114034;28;20024;-49
2022/04/17 12:07:07;;;;;;;1.15;0.88;;;;;;;;;;5114786;28;20103;-49
2022/04/17 12:09:33;;;;;;;1.08;0.68;;;;;;;;;;5114203;28;20058;-48
2022/04/17 12:11:59;;;;;;;0.82;0.52;;;;;;;;;;5114576;28;20521;-51
2022/04/17 12:14:31;;;;;;;0.95;0.60;;;;;;;;;;5113810;28;20107;-51
2022/04/17 12:16:58;;;;;;;1.23;0.73;;;;;;;;;;5114586;28;20015;-52
2022/04/17 12:19:27;;;;;;;1.45;0.88;;;;;;;;;;5114049;28;20484;-53
2022/04/17 12:21:53;;;;;;;0.60;0.60;;;;;;;;;;5114404;28;20034;-48
2022/04/17 12:24:22;;;;;;;0.95;0.70;;;;;;;;;;5113494;28;20144;-54
2022/04/17 12:26:48;;;;;;;0.73;0.60;;;;;;;;;;5114284;28;20028;-50
2022/04/17 12:29:14;;;;;;;0.77;0.60;;;;;;;;;;5114137;28;20103;-50
2022/04/17 12:31:40;;;;;;;1.20;0.50;;;;;;;;;;5113300;28;20027;-48
2022/04/17 12:34:12;;;;;;;1.65;0.80;;;;;;;;;;5114139;28;20444;-51
2022/04/17 12:36:38;;;;;;;;;;;;;;;;;;5113666;28;20049;-49
2022/04/17 12:39:05;;;;;;;0.60;0.60;;;;;;;;;;5114110;28;20351;-50
2022/04/17 12:41:42;;;;;;;1.08;0.60;;;;;;;;;;5113302;28;20031;-50
2022/04/17 12:44:08;;;;;;;0.98;0.70;;;;;;;;;;5113930;28;20044;-47
2022/04/17 12:46:35;;;;;;;1.38;0.52;;;;;;;;;;5112906;28;20091;-47
2022/04/17 12:49:05;;;;;;;1.10;0.93;;;;;;;;;;5113933;28;20026;-48
2022/04/17 12:51:32;;;;;;;1.27;0.50;;;;;;;;;;5113312;28;20072;-47
2022/04/17 12:53:58;;;;;;;1.15;0.77;;;;;;;;;;5113778;28;20016;-49
2022/04/17 12:56:27;;;;;;;1.02;0.60;;;;;;;;;;5113060;28;20058;-48
2022/04/17 12:58:56;;;;;;;0.98;0.70;;;;;;;;;;5113516;28;20051;-47
2022/04/17 13:01:45;;;;;;;0.77;0.55;;;;;;;;;;5112891;28;20024;-54
2022/04/17 13:04:11;;;;;;;0.80;0.60;;;;;;;;;;5113607;28;20039;-48
2022/04/17 13:06:37;;;;;;;1.13;0.60;;;;;;;;;;5112850;28;20015;-48
2022/04/17 13:09:12;;;;;;;2.05;0.88;;;;;;;;;;5113533;28;20106;-48
2022/04/17 13:11:49;;;;;;;1.70;0.60;;;;;;;;;;5094552;28;20027;-48
2022/04/17 13:14:15;;;;;;;0.63;0.55;;;;;;;;;;5113566;28;20073;-48
2022/04/17 13:16:56;;;;;;;0.75;0.70;;;;;;;;;;5112653;28;20160;-48
2022/04/17 13:19:23;;;;;;;1.65;0.88;;;;;;;;;;5112933;28;20055;-54
2022/04/17 13:21:50;;;;;;;1.23;0.70;;;;;;;;;;5112951;28;20020;-49
2022/04/17 13:24:17;;;;;;;0.60;0.60;;;;;;;;;;5113183;28;20057;-47
2022/04/17 13:26:43;;;;;;;0.70;0.50;;;;;;;;;;5112466;28;20046;-47
2022/04/17 13:29:10;;;;;;;0.90;0.60;;;;;;;;;;5112987;28;20023;-48
2022/04/17 13:31:36;;;;;;;0.68;0.52;;;;;;;;;;5112051;28;20027;-48
2022/04/17 13:34:03;;;;;;;0.65;0.60;;;;;;;;;;5113137;28;20549;-47
2022/04/17 13:36:29;;;;;;;0.80;0.60;;;;;;;;;;5111147;28;20028;-49
2022/04/17 13:38:55;;;;;;;0.65;0.50;;;;;;;;;;5094634;28;20438;-47
2022/04/17 13:41:22;;;;;;;0.50;0.50;;;;;;;;;;5112840;28;20027;-47
2022/04/17 13:43:49;;;;;;;1.13;0.60;;;;;;;;;;5111990;28;20457;-47
2022/04/17 13:46:15;;;;;;;0.68;0.60;;;;;;;;;;5112623;28;20027;-47
2022/04/17 13:48:43;;;;;;;0.93;0.60;;;;;;;;;;5111646;28;20028;-47
2022/04/17 13:51:09;;;;;;;0.85;0.60;;;;;;;;;;5112673;28;20023;-48
2022/04/17 13:53:35;;;;;;;2.35;0.63;;;;;;;;;;5111770;28;20031;-48
2022/04/17 13:56:02;;;;;;;1.35;0.60;;;;;;;;;;5113037;28;20097;-47
2022/04/17 13:58:28;;;;;;;2.00;0.65;;;;;;;;;;5111995;28;20037;-47
2022/04/17 14:00:56;;;;;;;0.55;0.52;;;;;;;;;;5094509;28;20019;-47
2022/04/17 14:03:22;;;;;;;1.90;0.70;;;;;;;;;;5112672;28;20047;-47
2022/04/17 14:05:48;;;;;;;0.65;0.57;;;;;;;;;;5111893;28;20104;-47
2022/04/17 14:08:15;;;;;;;1.02;0.50;;;;;;;;;;5112763;28;20020;-47
2022/04/17 14:10:41;;;;;;;0.93;0.60;;;;;;;;;;5111582;28;20034;-48
2022/04/17 14:13:08;;;;;;;0.80;0.57;;;;;;;;;;5112528;28;20084;-48
2022/04/17 14:15:34;;;;;;;0.95;0.85;;;;;;;;;;5111800;28;20027;-48
2022/04/17 14:18:00;;;;;;;0.60;0.60;;;;;;;;;;5112583;28;20020;-50
2022/04/17 14:20:28;;;;;;;1.27;1.05;;;;;;;;;;5112331;28;20016;-55
2022/04/17 14:22:54;;;;;;;2.45;0.70;;;;;;;;;;5112453;28;20032;-47
2022/04/17 14:25:20;;;;;;;1.45;1.15;;;;;;;;;;5112256;28;20149;-47
2022/04/17 14:27:46;;;;;;;1.45;0.60;;;;;;;;;;5111720;28;20500;-48
2022/04/17 14:30:13;;;;;;;0.93;0.70;;;;;;;;;;5112553;28;20019;-47
2022/04/17 14:32:39;;;;;;;1.23;0.80;;;;;;;;;;5111312;28;20020;-47
2022/04/17 14:35:05;;;;;;;1.17;0.80;;;;;;;;;;5112521;28;20039;-47
2022/04/17 14:37:31;;;;;;;0.50;0.40;;;;;;;;;;5111642;28;20028;-47
2022/04/17 14:39:57;;;;;;;0.80;0.50;;;;;;;;;;5112668;28;20089;-47
2022/04/17 14:42:23;;;;;;;1.10;0.75;;;;;;;;;;5112107;28;20032;-48
2022/04/17 14:44:49;;;;;;;1.60;1.20;;;;;;;;;;5111245;28;20075;-47
2022/04/17 14:47:15;;;;;;;0.93;0.65;;;;;;;;;;5114520;28;20189;-47
2022/04/17 14:49:42;;;;;;;1.35;0.80;;;;;;;;;;5115487;28;20024;-47
2022/04/17 14:52:09;;;;;;;1.35;0.75;;;;;;;;;;5115992;28;20107;-47
2022/04/17 14:54:37;;;;;;;2.15;0.57;;;;;;;;;;5096838;28;20024;-47
2022/04/17 14:57:03;;;;;;;2.53;0.75;;;;;;;;;;5116048;28;20529;-48